Time;durP1;ratioP1;P1;durP2;ratioP2;P2;SDS_P1;SDS_P2;PMS_P1;PMS_P2;Temp;Humidity;BMP_temperature;BMP_pressure;BME280_temperature;BME280_humidity;BME280_pressure;Samples;Min_cycle;Max_cycle;Signal;HPM_P1;HPM_P2
2023/12/27 00:03:59;;;;;;;0.20;0.20;;;;;;;;;;10420894;28;20206;-74
2023/12/27 00:09:00;;;;;;;2.10;0.40;;;;;;;;;;10436963;28;20319;-77
2023/12/27 00:14:02;;;;;;;1.25;0.57;;;;;;;;;;10438248;28;20210;-76
2023/12/27 00:19:03;;;;;;;2.42;0.20;;;;;;;;;;10436762;28;20214;-75
2023/12/27 00:24:04;;;;;;;0.25;0.15;;;;;;;;;;10434914;28;20210;-76
2023/12/27 00:29:05;;;;;;;3.33;0.73;;;;;;;;;;10424934;28;20261;-75
2023/12/27 00:34:06;;;;;;;5.05;0.60;;;;;;;;;;10431330;28;20342;-76
2023/12/27 00:39:10;;;;;;;1.83;0.40;;;;;;;;;;10418923;28;20232;-75
2023/12/27 00:44:11;;;;;;;2.60;0.47;;;;;;;;;;10425011;28;20295;-74
2023/12/27 00:49:12;;;;;;;2.92;0.30;;;;;;;;;;10428023;28;20309;-75
2023/12/27 00:54:13;;;;;;;1.88;0.30;;;;;;;;;;10438521;28;20312;-75
2023/12/27 00:59:14;;;;;;;3.70;0.30;;;;;;;;;;10401100;28;20345;-77
2023/12/27 01:04:15;;;;;;;2.30;0.35;;;;;;;;;;10358578;28;20219;-74
2023/12/27 01:09:16;;;;;;;0.70;0.30;;;;;;;;;;10354527;28;20226;-75
2023/12/27 01:14:19;;;;;;;4.95;0.85;;;;;;;;;;10360255;28;20231;-75
2023/12/27 01:19:20;;;;;;;2.63;0.30;;;;;;;;;;10355305;28;20704;-74
2023/12/27 01:24:21;;;;;;;2.10;0.40;;;;;;;;;;10368435;28;20211;-73
2023/12/27 01:29:22;;;;;;;3.00;0.32;;;;;;;;;;10371592;28;20832;-75
2023/12/27 01:34:22;;;;;;;1.17;0.38;;;;;;;;;;10361078;28;20714;-75
2023/12/27 01:39:24;;;;;;;3.90;0.60;;;;;;;;;;10374840;28;20712;-75
2023/12/27 01:44:25;;;;;;;2.10;0.57;;;;;;;;;;10366675;28;20367;-75
2023/12/27 01:49:26;;;;;;;2.45;0.60;;;;;;;;;;10366066;28;20222;-75
2023/12/27 01:54:27;;;;;;;0.93;0.40;;;;;;;;;;10377095;28;20211;-74
2023/12/27 01:59:29;;;;;;;2.85;0.73;;;;;;;;;;10387573;28;20317;-75
2023/12/27 02:04:31;;;;;;;7.88;0.45;;;;;;;;;;10372735;28;20294;-76
2023/12/27 02:09:33;;;;;;;0.65;0.32;;;;;;;;;;10352088;28;20268;-74
2023/12/27 02:14:34;;;;;;;1.10;0.40;;;;;;;;;;10364438;28;20211;-76
2023/12/27 02:19:35;;;;;;;3.88;0.43;;;;;;;;;;10375237;28;20223;-75
2023/12/27 02:24:36;;;;;;;4.20;0.65;;;;;;;;;;10369837;28;20207;-75
2023/12/27 02:29:38;;;;;;;2.10;0.40;;;;;;;;;;10358709;28;20909;-75
2023/12/27 02:34:40;;;;;;;0.52;0.25;;;;;;;;;;10374186;28;20211;-74
2023/12/27 02:39:40;;;;;;;2.83;0.75;;;;;;;;;;10370419;28;20222;-74
2023/12/27 02:44:42;;;;;;;4.15;0.28;;;;;;;;;;10377248;28;20740;-73
2023/12/27 02:49:42;;;;;;;0.28;0.22;;;;;;;;;;10362984;28;20222;-75
2023/12/27 02:54:43;;;;;;;2.30;0.40;;;;;;;;;;10353811;28;20215;-73
2023/12/27 02:59:44;;;;;;;2.28;0.40;;;;;;;;;;10414691;28;20239;-75
2023/12/27 03:04:45;;;;;;;1.73;0.30;;;;;;;;;;10426359;28;20207;-73
2023/12/27 03:09:47;;;;;;;0.60;0.30;;;;;;;;;;10399601;28;20222;-74
2023/12/27 03:14:50;;;;;;;1.13;0.60;;;;;;;;;;10431984;28;20206;-73
2023/12/27 03:19:51;;;;;;;1.58;0.30;;;;;;;;;;10428997;28;20626;-73
2023/12/27 03:24:52;;;;;;;3.72;0.40;;;;;;;;;;10394133;28;20206;-75
2023/12/27 03:29:53;;;;;;;1.10;0.35;;;;;;;;;;10410828;28;20222;-74
2023/12/27 03:34:54;;;;;;;1.13;0.40;;;;;;;;;;10403211;28;20218;-76
2023/12/27 03:39:55;;;;;;;3.75;0.22;;;;;;;;;;10429640;28;20229;-73
2023/12/27 03:44:56;;;;;;;0.75;0.20;;;;;;;;;;10429600;28;20218;-74
2023/12/27 03:49:57;;;;;;;1.17;0.30;;;;;;;;;;10429583;28;20210;-74
2023/12/27 03:54:58;;;;;;;1.55;0.45;;;;;;;;;;10415921;28;20245;-73
2023/12/27 03:59:59;;;;;;;2.70;0.50;;;;;;;;;;10394390;28;20317;-75
2023/12/27 04:05:00;;;;;;;1.20;0.22;;;;;;;;;;10387705;28;20589;-74
2023/12/27 04:10:03;;;;;;;0.95;0.20;;;;;;;;;;10358539;28;20247;-76
2023/12/27 04:15:04;;;;;;;0.57;0.40;;;;;;;;;;10379051;28;20191;-74
2023/12/27 04:20:06;;;;;;;4.78;0.20;;;;;;;;;;10380418;28;20252;-75
2023/12/27 04:25:08;;;;;;;6.15;0.98;;;;;;;;;;10372744;28;20191;-74
2023/12/27 04:30:09;;;;;;;0.68;0.32;;;;;;;;;;10376181;28;20215;-74
2023/12/27 04:35:10;;;;;;;1.77;0.43;;;;;;;;;;10387238;28;20192;-74
2023/12/27 04:40:11;;;;;;;0.52;0.20;;;;;;;;;;10359541;28;20218;-74
2023/12/27 04:45:12;;;;;;;0.63;0.28;;;;;;;;;;10373281;28;20744;-74
2023/12/27 04:50:14;;;;;;;3.92;0.30;;;;;;;;;;10347190;28;20276;-73
2023/12/27 04:55:15;;;;;;;3.40;0.38;;;;;;;;;;10365163;28;20279;-75
2023/12/27 05:00:17;;;;;;;0.20;0.20;;;;;;;;;;10428140;28;20574;-73
2023/12/27 05:05:18;;;;;;;4.13;0.30;;;;;;;;;;10419040;28;20270;-75
2023/12/27 05:10:19;;;;;;;2.75;0.32;;;;;;;;;;10411667;28;20713;-73
2023/12/27 05:15:20;;;;;;;1.40;0.25;;;;;;;;;;10418453;28;20226;-72
2023/12/27 05:20:21;;;;;;;1.00;0.38;;;;;;;;;;10423527;28;20632;-74
2023/12/27 05:25:22;;;;;;;3.25;0.52;;;;;;;;;;10438901;28;20195;-75
2023/12/27 05:30:23;;;;;;;6.40;0.43;;;;;;;;;;10444891;28;20220;-74
2023/12/27 05:35:24;;;;;;;2.80;0.30;;;;;;;;;;10417988;28;20194;-74
2023/12/27 05:40:25;;;;;;;3.50;0.30;;;;;;;;;;10419595;28;20207;-73
2023/12/27 05:45:26;;;;;;;0.73;0.50;;;;;;;;;;10426952;28;20218;-75
2023/12/27 05:50:27;;;;;;;2.70;0.57;;;;;;;;;;10410914;28;20230;-74
2023/12/27 05:55:29;;;;;;;4.57;0.40;;;;;;;;;;10434367;28;20235;-75
2023/12/27 06:00:29;;;;;;;3.13;0.30;;;;;;;;;;10389284;28;20922;-75
2023/12/27 06:05:31;;;;;;;2.08;0.30;;;;;;;;;;10373168;28;20215;-76
2023/12/27 06:10:32;;;;;;;5.75;0.20;;;;;;;;;;10382394;28;20693;-76
2023/12/27 06:15:33;;;;;;;5.78;0.52;;;;;;;;;;10357670;28;20222;-76
2023/12/27 06:20:34;;;;;;;0.80;0.40;;;;;;;;;;10371669;28;20224;-76
2023/12/27 06:25:35;;;;;;;4.22;0.20;;;;;;;;;;10386637;28;20929;-76
2023/12/27 06:30:36;;;;;;;2.70;0.32;;;;;;;;;;10387209;28;20749;-74
2023/12/27 06:35:37;;;;;;;0.20;0.20;;;;;;;;;;10361987;28;20215;-75
2023/12/27 06:40:38;;;;;;;2.47;0.40;;;;;;;;;;10386105;28;20251;-78
2023/12/27 06:45:39;;;;;;;1.02;0.30;;;;;;;;;;10381276;28;20313;-78
2023/12/27 06:50:40;;;;;;;3.55;0.60;;;;;;;;;;10362854;28;20256;-79
2023/12/27 06:55:41;;;;;;;3.78;0.43;;;;;;;;;;10357870;28;20239;-77
2023/12/27 07:00:42;;;;;;;2.80;0.30;;;;;;;;;;10389505;28;20692;-78
2023/12/27 07:05:43;;;;;;;5.80;0.40;;;;;;;;;;10437148;28;20230;-77
2023/12/27 07:10:44;;;;;;;6.57;0.70;;;;;;;;;;10386530;28;20762;-75
2023/12/27 07:15:45;;;;;;;4.80;0.60;;;;;;;;;;10414667;28;20225;-75
2023/12/27 07:20:46;;;;;;;1.83;0.50;;;;;;;;;;10396321;28;20291;-76
2023/12/27 07:25:48;;;;;;;4.47;0.40;;;;;;;;;;10405577;28;21240;-75
2023/12/27 07:30:49;;;;;;;2.63;0.90;;;;;;;;;;10404456;28;20750;-75
2023/12/27 07:35:50;;;;;;;3.08;0.80;;;;;;;;;;10404355;28;20214;-75
2023/12/27 07:40:52;;;;;;;1.48;0.30;;;;;;;;;;10405513;28;20215;-76
2023/12/27 08:11:51;;;;;;;2.25;0.43;;;;;;;;;;10409494;28;20214;-74
2023/12/27 08:16:53;;;;;;;1.92;0.50;;;;;;;;;;10408248;28;20218;-74
2023/12/27 08:21:55;;;;;;;2.10;0.50;;;;;;;;;;10416673;28;20217;-75
2023/12/27 08:26:56;;;;;;;2.45;0.40;;;;;;;;;;10422317;28;20214;-75
2023/12/27 08:31:57;;;;;;;4.53;0.38;;;;;;;;;;10398044;28;20242;-74
2023/12/27 08:36:58;;;;;;;0.45;0.32;;;;;;;;;;10412635;28;20308;-73
2023/12/27 08:42:01;;;;;;;2.03;0.60;;;;;;;;;;10425155;28;20581;-73
2023/12/27 08:47:02;;;;;;;3.85;0.60;;;;;;;;;;10412891;28;20825;-77
2023/12/27 08:52:03;;;;;;;2.60;0.60;;;;;;;;;;10389354;28;20689;-73
2023/12/27 08:57:04;;;;;;;4.50;0.35;;;;;;;;;;10417326;28;20223;-73
2023/12/27 09:02:05;;;;;;;4.50;0.50;;;;;;;;;;10419659;28;20210;-73
2023/12/27 09:07:06;;;;;;;1.33;0.40;;;;;;;;;;10428914;28;20214;-72
2023/12/27 09:12:07;;;;;;;2.35;0.35;;;;;;;;;;10413274;28;20219;-74
2023/12/27 09:17:08;;;;;;;4.65;0.47;;;;;;;;;;10431343;28;20295;-73
2023/12/27 09:22:10;;;;;;;3.22;0.75;;;;;;;;;;10424405;28;20230;-75
2023/12/27 09:27:13;;;;;;;0.57;0.20;;;;;;;;;;10411397;28;20219;-74
2023/12/27 09:32:15;;;;;;;4.50;0.60;;;;;;;;;;10411921;28;20253;-74
2023/12/27 09:37:16;;;;;;;0.75;0.40;;;;;;;;;;10438505;28;20227;-74
2023/12/27 09:42:17;;;;;;;0.98;0.32;;;;;;;;;;10413334;28;20292;-75
2023/12/27 09:47:18;;;;;;;2.22;0.40;;;;;;;;;;10420727;28;20214;-75
2023/12/27 09:52:20;;;;;;;3.85;0.38;;;;;;;;;;10422480;28;20206;-75
2023/12/27 09:57:22;;;;;;;1.17;0.52;;;;;;;;;;10430048;28;20710;-74
2023/12/27 10:02:24;;;;;;;2.33;0.70;;;;;;;;;;10433318;28;20242;-72
2023/12/27 10:07:25;;;;;;;2.85;0.70;;;;;;;;;;10420209;28;20619;-76
2023/12/27 10:12:27;;;;;;;1.98;0.50;;;;;;;;;;10405111;28;20227;-73
2023/12/27 10:17:28;;;;;;;0.70;0.47;;;;;;;;;;10403159;28;20217;-74
2023/12/27 10:22:30;;;;;;;5.00;0.75;;;;;;;;;;10421858;28;20215;-74
2023/12/27 10:27:31;;;;;;;3.72;0.95;;;;;;;;;;10430511;28;20283;-74
2023/12/27 10:32:32;;;;;;;1.38;0.70;;;;;;;;;;10379709;28;20286;-78
